Willeys, Illinois
Current Conditions -  °F | °C
As of 10:15 PM on Tuesday 21 Oct 2014 (Local Time) from KTAZ Reporting Station
Clear Clear  
Wind Chill: 43°   Ceiling: Unl
Heat Index: 46°   Visibility: 10mi
Dew Point: 39°   Wind: 7mph
Humidity: 76%   Direction: 70°ENE
Pressure: 30.23"   Gusts: NA
Location:  39.5521°N, 89.3216°W
Report Text: KTAZ 220315Z AUTO 07006KT 10SM CLR 08/04 A3023 RMK AO2
Loading
Personal Weather Stations






























Interactive Weather Map
Tropical Storm Tracking
New forecast layout! Learn more

10-Day Weather Forecast

Advertisements
Track Severe Weather on mobile